createdAt,value
2023-04-16T00:01:34.548Z,42.78
2023-04-16T00:04:01.400Z,42.90
2023-04-16T00:06:28.666Z,42.83
2023-04-16T00:08:55.287Z,42.65
2023-04-16T00:11:22.203Z,42.90
2023-04-16T00:13:49.039Z,42.90
2023-04-16T00:16:15.906Z,42.25
2023-04-16T00:18:42.567Z,41.28
2023-04-16T00:21:09.227Z,42.70
2023-04-16T00:23:35.892Z,42.55
2023-04-16T00:26:02.599Z,42.47
2023-04-16T00:28:29.207Z,42.58
2023-04-16T00:30:55.989Z,41.80
2023-04-16T00:33:23.364Z,42.95
2023-04-16T00:35:51.193Z,41.95
2023-04-16T00:38:17.837Z,42.47
2023-04-16T00:40:44.445Z,42.88
2023-04-16T00:43:11.215Z,41.10
2023-04-16T00:45:37.838Z,39.25
2023-04-16T00:48:04.755Z,40.88
2023-04-16T00:50:31.426Z,40.00
2023-04-16T00:52:58.208Z,39.22
2023-04-16T00:55:24.840Z,41.05
2023-04-16T00:57:51.435Z,39.95
2023-04-16T01:00:18.050Z,42.45
2023-04-16T01:02:44.802Z,41.20
2023-04-16T01:05:11.606Z,40.13
2023-04-16T01:07:38.241Z,42.20
2023-04-16T01:10:05.133Z,42.92
2023-04-16T01:12:32.444Z,42.28
2023-04-16T01:14:59.076Z,41.33
2023-04-16T01:17:25.802Z,42.22
2023-04-16T01:19:52.413Z,40.55
2023-04-16T01:22:19.033Z,41.65
2023-04-16T01:24:45.722Z,42.47
2023-04-16T01:27:12.526Z,41.08
2023-04-16T01:29:39.116Z,40.65
2023-04-16T01:32:05.746Z,42.60
2023-04-16T01:34:32.346Z,44.15
2023-04-16T01:36:58.959Z,41.95
2023-04-16T01:39:25.592Z,44.47
2023-04-16T01:41:52.237Z,43.38
2023-04-16T01:44:18.869Z,42.80
2023-04-16T01:46:45.615Z,42.40
2023-04-16T01:49:12.318Z,43.92
2023-04-16T01:51:38.982Z,45.75
2023-04-16T01:54:05.724Z,44.08
2023-04-16T01:56:32.352Z,43.25
2023-04-16T01:58:58.963Z,43.95
2023-04-16T02:01:25.760Z,42.47
2023-04-16T02:03:53.143Z,45.50
2023-04-16T02:06:19.852Z,46.42
2023-04-16T02:08:46.455Z,47.03
2023-04-16T02:11:13.089Z,46.53
2023-04-16T02:13:39.692Z,47.13
2023-04-16T02:16:06.544Z,47.55
2023-04-16T02:18:33.165Z,49.55
2023-04-16T02:21:00.464Z,48.88
2023-04-16T02:23:27.062Z,48.58
2023-04-16T02:25:53.688Z,49.58
2023-04-16T02:28:20.335Z,48.92
2023-04-16T02:30:46.959Z,48.33
2023-04-16T02:33:13.581Z,50.25
2023-04-16T02:35:40.425Z,46.83
2023-04-16T02:38:07.661Z,48.15
2023-04-16T02:40:34.332Z,48.78
2023-04-16T02:43:01.079Z,49.50
2023-04-16T02:45:27.733Z,47.97
2023-04-16T02:47:54.399Z,49.70
2023-04-16T02:50:21.133Z,48.55
2023-04-16T02:52:47.730Z,48.22
2023-04-16T02:55:14.365Z,48.35
2023-04-16T02:57:42.344Z,50.00
2023-04-16T03:00:09.501Z,50.60
2023-04-16T03:02:36.327Z,49.58
2023-04-16T03:05:03.674Z,48.42
2023-04-16T03:07:30.395Z,48.83
2023-04-16T03:09:57.200Z,49.85
2023-04-16T03:12:23.821Z,50.42
2023-04-16T03:14:53.497Z,48.47
2023-04-16T03:17:20.141Z,49.22
2023-04-16T03:19:46.801Z,50.67
2023-04-16T03:22:13.431Z,50.63
2023-04-16T03:24:40.034Z,49.40
2023-04-16T03:27:06.663Z,48.92
2023-04-16T03:29:33.268Z,49.08
2023-04-16T03:31:59.887Z,49.17
2023-04-16T03:34:26.884Z,48.25
2023-04-16T03:36:53.512Z,49.10
2023-04-16T03:39:20.501Z,48.88
2023-04-16T03:41:47.296Z,47.75
2023-04-16T03:44:13.901Z,45.95
2023-04-16T03:46:40.522Z,46.25
2023-04-16T03:49:07.623Z,47.05
2023-04-16T03:51:34.524Z,45.95
2023-04-16T03:54:01.170Z,46.25
2023-04-16T03:56:27.811Z,46.35
2023-04-16T03:58:54.430Z,45.47
2023-04-16T04:01:21.039Z,45.53
2023-04-16T04:03:47.970Z,45.63
2023-04-16T04:06:14.962Z,44.78
2023-04-16T04:08:41.550Z,47.47
2023-04-16T04:11:08.171Z,44.80
2023-04-16T04:13:34.764Z,46.05
2023-04-16T04:16:01.396Z,45.10
2023-04-16T04:18:28.016Z,45.60
2023-04-16T04:20:54.640Z,43.65
2023-04-16T04:23:21.228Z,44.22
2023-04-16T04:25:47.878Z,45.60
2023-04-16T04:28:14.552Z,42.55
2023-04-16T04:30:41.308Z,41.67
2023-04-16T04:33:07.901Z,44.30
2023-04-16T04:35:34.500Z,44.22
2023-04-16T04:38:03.097Z,43.17
2023-04-16T04:40:29.712Z,42.70
2023-04-16T04:42:56.524Z,44.75
2023-04-16T04:45:25.547Z,43.95
2023-04-16T04:47:55.583Z,45.05
2023-04-16T04:50:22.331Z,45.53
2023-04-16T04:52:48.938Z,46.15
2023-04-16T04:55:16.067Z,46.58
2023-04-16T04:57:42.746Z,46.22
2023-04-16T05:00:09.761Z,47.85
2023-04-16T05:02:36.504Z,46.83
2023-04-16T05:05:03.804Z,47.70
2023-04-16T05:07:30.703Z,48.03
2023-04-16T05:09:57.384Z,46.97
2023-04-16T05:12:24.037Z,47.70
2023-04-16T05:14:50.776Z,46.33
2023-04-16T05:17:17.427Z,46.85
2023-04-16T05:19:44.033Z,47.35
2023-04-16T05:22:10.693Z,43.67
2023-04-16T05:24:37.312Z,43.85
2023-04-16T05:27:04.073Z,45.58
2023-04-16T05:29:30.745Z,43.42
2023-04-16T05:31:57.356Z,41.70
2023-04-16T05:34:24.006Z,39.58
2023-04-16T05:36:50.690Z,42.25
2023-04-16T05:39:17.997Z,38.00
2023-04-16T05:41:44.607Z,38.42
2023-04-16T05:44:11.198Z,37.63
2023-04-16T05:46:37.960Z,37.20
2023-04-16T05:49:04.630Z,36.85
2023-04-16T05:51:32.064Z,35.83
2023-04-16T05:53:58.711Z,35.22
2023-04-16T05:56:25.489Z,36.08
2023-04-16T05:58:52.097Z,35.47
2023-04-16T06:01:18.786Z,36.72
2023-04-16T06:03:45.521Z,35.60
2023-04-16T06:06:12.293Z,35.90
2023-04-16T06:08:38.925Z,38.30
2023-04-16T06:11:05.555Z,38.78
2023-04-16T06:13:32.201Z,35.42
2023-04-16T06:15:58.839Z,37.00
2023-04-16T06:18:25.609Z,37.35
2023-04-16T06:20:52.539Z,36.85
2023-04-16T06:23:19.194Z,36.42
2023-04-16T06:25:45.803Z,36.58
2023-04-16T06:28:12.403Z,36.92
2023-04-16T06:30:39.398Z,36.83
2023-04-16T06:33:06.045Z,37.13
2023-04-16T06:35:32.690Z,37.13
2023-04-16T06:37:59.285Z,37.97
2023-04-16T06:40:25.992Z,38.50
2023-04-16T06:42:52.593Z,37.33
2023-04-16T06:45:19.293Z,38.45
2023-04-16T06:47:48.072Z,38.67
2023-04-16T06:50:14.841Z,36.85
2023-04-16T06:52:41.463Z,39.67
2023-04-16T06:55:09.793Z,39.03
2023-04-16T06:57:37.568Z,37.33
2023-04-16T07:00:07.536Z,37.65
2023-04-16T07:02:34.275Z,40.15
2023-04-16T07:05:01.056Z,40.80
2023-04-16T07:07:27.664Z,40.45
2023-04-16T07:09:54.255Z,38.65
2023-04-16T07:12:22.653Z,38.47
2023-04-16T07:14:49.628Z,41.88
2023-04-16T07:17:16.306Z,40.92
2023-04-16T07:19:42.907Z,40.45
2023-04-16T07:22:09.576Z,41.33
2023-04-16T07:24:36.212Z,41.72
2023-04-16T07:27:02.896Z,40.38
2023-04-16T07:29:29.500Z,40.53
2023-04-16T07:31:56.137Z,41.15
2023-04-16T07:34:22.806Z,42.63
2023-04-16T07:36:49.431Z,41.38
2023-04-16T07:39:16.185Z,43.47
2023-04-16T07:41:43.155Z,42.20
2023-04-16T07:44:09.796Z,40.88
2023-04-16T07:46:46.365Z,43.15
2023-04-16T07:49:13.780Z,40.03
2023-04-16T07:51:40.542Z,42.50
2023-04-16T07:54:07.182Z,44.72
2023-04-16T07:56:33.808Z,42.42
2023-04-16T07:59:07.879Z,41.90
2023-04-16T08:01:41.411Z,41.20
2023-04-16T08:04:08.173Z,42.40
2023-04-16T08:06:34.983Z,41.90
2023-04-16T08:09:01.582Z,42.03
2023-04-16T08:11:28.613Z,41.67
2023-04-16T08:13:55.342Z,43.38
2023-04-16T08:16:22.065Z,42.90
2023-04-16T08:18:51.804Z,42.30
2023-04-16T08:21:18.483Z,41.47
2023-04-16T08:23:45.365Z,41.45
2023-04-16T08:26:12.008Z,38.88
2023-04-16T08:28:38.643Z,38.85
2023-04-16T08:31:05.451Z,37.95
2023-04-16T08:33:32.064Z,39.53
2023-04-16T08:35:58.768Z,39.92
2023-04-16T08:38:29.282Z,37.15
2023-04-16T08:40:56.942Z,40.72
2023-04-16T08:43:24.006Z,39.65
2023-04-16T08:45:50.743Z,36.88
2023-04-16T08:48:17.567Z,37.33
2023-04-16T08:50:44.211Z,36.08
2023-04-16T08:53:12.146Z,35.33
2023-04-16T08:55:48.404Z,36.83
2023-04-16T08:58:18.832Z,37.08
2023-04-16T09:00:48.258Z,37.50
2023-04-16T09:03:15.092Z,34.97
2023-04-16T09:05:42.345Z,38.08
2023-04-16T09:08:08.981Z,37.78
2023-04-16T09:10:35.670Z,36.88
2023-04-16T09:13:02.883Z,37.58
2023-04-16T09:15:29.601Z,37.40
2023-04-16T09:18:00.310Z,38.95
2023-04-16T09:20:27.001Z,37.47
2023-04-16T09:22:53.652Z,36.83
2023-04-16T09:25:22.130Z,39.17
2023-04-16T09:27:51.992Z,38.80
2023-04-16T09:30:22.373Z,40.15
2023-04-16T09:32:49.574Z,38.42
2023-04-16T09:35:18.007Z,35.70
2023-04-16T09:37:44.616Z,37.47
2023-04-16T09:40:14.425Z,36.78
2023-04-16T09:42:41.064Z,35.55
2023-04-16T09:45:08.528Z,35.13
2023-04-16T09:47:43.045Z,36.55
2023-04-16T09:50:12.526Z,34.53
2023-04-16T09:52:39.687Z,34.88
2023-04-16T09:55:06.536Z,34.08
2023-04-16T09:57:33.776Z,32.75
2023-04-16T10:00:09.195Z,31.92
2023-04-16T10:02:38.982Z,32.20
2023-04-16T10:05:06.376Z,31.85
2023-04-16T10:07:36.676Z,36.85
2023-04-16T10:10:03.912Z,34.95
2023-04-16T10:12:32.608Z,30.05
2023-04-16T10:14:59.593Z,30.23
2023-04-16T10:17:27.264Z,30.83
2023-04-16T10:19:54.742Z,30.38
2023-04-16T10:22:21.392Z,30.80
2023-04-16T10:24:48.041Z,30.02
2023-04-16T10:27:14.665Z,29.75
2023-04-16T10:29:41.254Z,30.60
2023-04-16T10:32:07.876Z,28.25
2023-04-16T10:34:34.502Z,28.25
2023-04-16T10:37:01.140Z,27.50
2023-04-16T10:39:28.985Z,26.55
2023-04-16T10:42:09.385Z,28.30
2023-04-16T10:44:36.508Z,28.58
2023-04-16T10:47:03.243Z,26.65
2023-04-16T10:49:29.939Z,28.27
2023-04-16T10:52:02.023Z,26.17
2023-04-16T10:54:28.563Z,26.10
2023-04-16T10:57:01.644Z,26.60
2023-04-16T10:59:34.812Z,26.83
2023-04-16T11:02:02.581Z,27.33
2023-04-16T11:04:39.322Z,25.38
2023-04-16T11:07:07.019Z,27.50
2023-04-16T11:09:49.603Z,27.70
2023-04-16T11:12:29.337Z,28.80
2023-04-16T11:15:06.265Z,26.40
2023-04-16T11:17:44.680Z,28.95
2023-04-16T11:20:20.063Z,29.83
2023-04-16T11:22:51.262Z,30.67
2023-04-16T11:25:22.174Z,29.20
2023-04-16T11:27:49.326Z,30.77
2023-04-16T11:30:16.022Z,30.52
2023-04-16T11:32:43.556Z,30.38
2023-04-16T11:35:17.831Z,30.05
2023-04-16T11:40:11.564Z,28.88
2023-04-16T11:42:40.634Z,29.38
2023-04-16T11:45:11.324Z,27.60
2023-04-16T11:47:55.400Z,28.85
2023-04-16T11:50:23.456Z,28.65
2023-04-16T11:52:51.243Z,29.85
2023-04-16T11:55:18.077Z,29.75
2023-04-16T11:57:45.893Z,29.23
2023-04-16T12:00:14.161Z,28.05
2023-04-16T12:02:45.962Z,27.40
2023-04-16T12:05:32.426Z,28.55
2023-04-16T12:07:59.553Z,28.98
2023-04-16T12:10:27.031Z,30.13
2023-04-16T12:12:53.679Z,30.70
2023-04-16T12:15:20.313Z,30.50
2023-04-16T12:17:47.758Z,29.15
2023-04-16T12:20:15.389Z,27.42
2023-04-16T12:22:47.040Z,28.85
2023-04-16T12:25:17.339Z,28.33
2023-04-16T12:27:55.675Z,28.98
2023-04-16T12:30:23.840Z,29.15
2023-04-16T12:32:51.721Z,30.83
2023-04-16T12:35:31.957Z,30.92
2023-04-16T12:37:58.703Z,31.73
2023-04-16T12:40:25.415Z,31.23
2023-04-16T12:42:52.196Z,31.58
2023-04-16T12:45:18.854Z,32.13
2023-04-16T12:47:46.110Z,31.63
2023-04-16T12:50:12.730Z,31.08
2023-04-16T12:52:39.365Z,33.05
2023-04-16T12:55:06.610Z,31.33
2023-04-16T12:57:33.217Z,33.08
2023-04-16T12:59:59.829Z,33.03
2023-04-16T13:02:27.056Z,32.42
2023-04-16T13:04:53.902Z,31.63
2023-04-16T13:07:20.711Z,32.08
2023-04-16T13:09:47.445Z,30.98
2023-04-16T13:12:14.075Z,33.58
2023-04-16T13:14:41.684Z,32.78
2023-04-16T13:17:09.064Z,33.45
2023-04-16T13:19:35.879Z,32.38
2023-04-16T13:22:02.491Z,32.72
2023-04-16T13:24:29.835Z,32.70
2023-04-16T13:26:56.453Z,32.28
2023-04-16T13:29:23.154Z,33.28
2023-04-16T13:31:49.836Z,31.80
2023-04-16T13:34:16.499Z,33.13
2023-04-16T13:36:43.215Z,31.55
2023-04-16T13:39:13.048Z,31.88
2023-04-16T13:41:39.781Z,31.63
2023-04-16T13:44:06.785Z,31.90
2023-04-16T13:46:33.727Z,32.20
2023-04-16T13:49:00.491Z,31.95
2023-04-16T13:51:27.816Z,31.55
2023-04-16T13:53:55.574Z,33.45
2023-04-16T13:56:22.261Z,31.00
2023-04-16T13:58:49.236Z,32.17
2023-04-16T14:01:16.144Z,31.75
2023-04-16T14:03:43.256Z,30.85
2023-04-16T14:06:09.958Z,31.40
2023-04-16T14:08:36.701Z,31.73
2023-04-16T14:11:03.348Z,32.30
2023-04-16T14:13:29.978Z,31.70
2023-04-16T14:15:57.073Z,31.25
2023-04-16T14:18:23.830Z,30.95
2023-04-16T14:20:50.640Z,33.60
2023-04-16T14:23:17.263Z,31.08
2023-04-16T14:25:43.858Z,32.33
2023-04-16T14:28:15.604Z,31.73
2023-04-16T14:30:42.411Z,34.20
2023-04-16T14:33:09.189Z,34.22
2023-04-16T14:35:35.947Z,34.53
2023-04-16T14:38:02.667Z,35.17
2023-04-16T14:40:29.319Z,34.05
2023-04-16T14:42:56.255Z,32.63
2023-04-16T14:45:23.143Z,33.08
2023-04-16T14:47:50.764Z,32.65
2023-04-16T14:50:17.404Z,35.78
2023-04-16T14:52:44.106Z,32.92
2023-04-16T14:55:10.777Z,32.90
2023-04-16T14:57:38.438Z,33.60
2023-04-16T15:00:13.253Z,35.53
2023-04-16T15:02:40.031Z,33.05
2023-04-16T15:05:09.716Z,32.55
2023-04-16T15:07:36.803Z,28.35
2023-04-16T15:10:03.786Z,28.83
2023-04-16T15:12:30.463Z,29.33
2023-04-16T15:14:57.084Z,28.02
2023-04-16T15:17:23.849Z,27.88
2023-04-16T15:19:52.080Z,25.38
2023-04-16T15:22:18.735Z,27.70
2023-04-16T15:24:45.375Z,27.02
2023-04-16T15:27:13.856Z,26.55
2023-04-16T15:29:40.514Z,26.65
2023-04-16T15:32:07.160Z,25.98
2023-04-16T15:34:33.828Z,25.65
2023-04-16T15:37:00.589Z,24.08
2023-04-16T15:39:27.359Z,24.05
2023-04-16T15:42:01.218Z,23.13
2023-04-16T15:44:30.935Z,24.98
2023-04-16T15:46:57.580Z,24.73
2023-04-16T15:49:24.712Z,23.42
2023-04-16T15:51:52.020Z,23.77
2023-04-16T15:54:18.670Z,24.88
2023-04-16T15:56:46.548Z,23.23
2023-04-16T15:59:13.488Z,21.95
2023-04-16T16:01:41.575Z,21.52
2023-04-16T16:04:08.467Z,21.50
2023-04-16T16:06:35.636Z,21.63
2023-04-16T16:09:02.235Z,23.35
2023-04-16T16:11:28.842Z,20.60
2023-04-16T16:13:55.477Z,20.13
2023-04-16T16:16:22.161Z,20.33
2023-04-16T16:18:48.881Z,19.88
2023-04-16T16:21:15.525Z,19.08
2023-04-16T16:23:42.180Z,19.00
2023-04-16T16:26:09.164Z,17.90
2023-04-16T16:28:38.807Z,18.38
2023-04-16T16:31:05.953Z,18.40
2023-04-16T16:33:32.865Z,17.88
2023-04-16T16:35:59.513Z,17.17
2023-04-16T16:38:26.164Z,17.98
2023-04-16T16:40:52.799Z,17.17
2023-04-16T16:43:20.357Z,16.50
2023-04-16T16:45:47.136Z,17.45
2023-04-16T16:48:13.846Z,16.50
2023-04-16T16:50:40.516Z,17.05
2023-04-16T16:53:07.412Z,16.77
2023-04-16T16:55:35.072Z,15.77
2023-04-16T16:58:01.712Z,16.30
2023-04-16T17:00:28.412Z,17.60
2023-04-16T17:02:55.185Z,18.02
2023-04-16T17:05:22.130Z,18.08
2023-04-16T17:07:49.003Z,22.48
2023-04-16T17:10:21.705Z,19.10
2023-04-16T17:12:48.916Z,23.10
2023-04-16T17:15:15.798Z,25.50
2023-04-16T17:17:42.813Z,22.25
2023-04-16T17:20:10.806Z,22.65
2023-04-16T17:22:38.065Z,25.73
2023-04-16T17:25:05.145Z,20.95
2023-04-16T17:27:34.558Z,20.60
2023-04-16T17:30:01.905Z,20.85
2023-04-16T17:32:29.102Z,22.40
2023-04-16T17:34:56.057Z,26.83
2023-04-16T17:37:23.122Z,24.45
2023-04-16T17:39:49.844Z,23.92
2023-04-16T17:42:16.482Z,25.52
2023-04-16T17:44:43.100Z,22.40
2023-04-16T17:47:09.725Z,21.40
2023-04-16T17:49:36.345Z,20.45
2023-04-16T17:52:03.022Z,20.30
2023-04-16T17:54:29.673Z,20.85
2023-04-16T17:56:57.510Z,22.20
2023-04-16T17:59:24.195Z,22.88
2023-04-16T18:01:50.905Z,23.35
2023-04-16T18:04:18.266Z,23.15
2023-04-16T18:06:45.383Z,23.90
2023-04-16T18:09:12.236Z,24.17
2023-04-16T18:11:38.840Z,25.85
2023-04-16T18:14:05.542Z,23.85
2023-04-16T18:16:32.206Z,25.25
2023-04-16T18:18:59.103Z,27.27
2023-04-16T18:21:26.063Z,25.42
2023-04-16T18:23:52.684Z,26.45
2023-04-16T18:26:22.488Z,24.88
2023-04-16T18:28:49.452Z,24.60
2023-04-16T18:31:18.983Z,26.27
2023-04-16T18:33:56.834Z,23.27
2023-04-16T18:36:26.071Z,23.58
2023-04-16T18:39:01.669Z,23.10
2023-04-16T18:41:29.319Z,23.55
2023-04-16T18:43:56.064Z,23.90
2023-04-16T18:46:22.799Z,24.13
2023-04-16T18:48:49.474Z,23.55
2023-04-16T18:51:16.672Z,86.65
2023-04-16T18:53:45.250Z,45.08
2023-04-16T18:56:11.927Z,41.83
2023-04-16T18:58:38.563Z,28.38
2023-04-16T19:01:07.749Z,25.13
2023-04-16T19:03:34.672Z,24.20
2023-04-16T19:06:01.534Z,23.35
2023-04-16T19:08:28.216Z,23.98
2023-04-16T19:10:54.855Z,24.00
2023-04-16T19:13:21.504Z,27.30
2023-04-16T19:15:48.159Z,26.60
2023-04-16T19:18:15.058Z,26.95
2023-04-16T19:20:41.666Z,28.77
2023-04-16T19:23:09.223Z,35.53
2023-04-16T19:25:38.651Z,33.22
2023-04-16T19:28:05.433Z,28.73
2023-04-16T19:30:32.053Z,27.83
2023-04-16T19:32:58.833Z,33.15
2023-04-16T19:35:25.689Z,31.75
2023-04-16T19:37:52.348Z,30.40
2023-04-16T19:40:19.092Z,31.52
2023-04-16T19:42:45.776Z,31.52
2023-04-16T19:45:12.449Z,31.10
2023-04-16T19:47:39.181Z,30.98
2023-04-16T19:50:06.423Z,31.83
2023-04-16T19:52:38.636Z,33.28
2023-04-16T19:55:06.509Z,34.47
2023-04-16T19:57:33.247Z,33.33
2023-04-16T20:00:00.074Z,35.60
2023-04-16T20:02:26.902Z,34.10
2023-04-16T20:04:53.610Z,33.72
2023-04-16T20:07:20.566Z,35.13
2023-04-16T20:09:47.241Z,35.38
2023-04-16T20:12:14.352Z,35.17
2023-04-16T20:14:41.789Z,35.95
2023-04-16T20:17:09.919Z,35.88
2023-04-16T20:19:40.537Z,36.92
2023-04-16T20:22:07.321Z,36.83
2023-04-16T20:24:34.223Z,36.90
2023-04-16T20:27:01.687Z,38.53
2023-04-16T20:29:28.294Z,36.88
2023-04-16T20:31:54.897Z,37.80
2023-04-16T20:34:21.519Z,38.28
2023-04-16T20:36:48.130Z,40.55
2023-04-16T20:39:20.138Z,39.00
2023-04-16T20:41:56.446Z,37.95
2023-04-16T20:44:26.416Z,38.08
2023-04-16T20:46:54.862Z,38.25
2023-04-16T20:49:21.628Z,38.78
2023-04-16T20:51:48.289Z,38.35
2023-04-16T20:54:14.901Z,39.13
2023-04-16T20:56:41.529Z,40.70
2023-04-16T20:59:08.174Z,40.25
2023-04-16T21:01:35.186Z,41.97
2023-04-16T21:04:02.008Z,39.70
2023-04-16T21:06:32.688Z,40.22
2023-04-16T21:08:59.328Z,39.40
2023-04-16T21:11:26.211Z,38.15
2023-04-16T21:13:52.848Z,39.03
2023-04-16T21:16:19.507Z,41.40
2023-04-16T21:18:46.226Z,40.53
2023-04-16T21:21:12.836Z,38.90
2023-04-16T21:23:39.448Z,40.30
2023-04-16T21:26:06.071Z,40.00
2023-04-16T21:28:32.770Z,42.28
2023-04-16T21:30:59.586Z,39.00
2023-04-16T21:33:26.314Z,40.28
2023-04-16T21:35:53.304Z,40.53
2023-04-16T21:38:20.443Z,39.10
2023-04-16T21:40:53.654Z,39.63
2023-04-16T21:43:20.500Z,38.25
2023-04-16T21:45:47.086Z,38.33
2023-04-16T21:48:13.720Z,39.67
2023-04-16T21:50:40.313Z,40.05
2023-04-16T21:53:06.929Z,40.95
2023-04-16T21:55:34.674Z,38.90
2023-04-16T21:58:01.693Z,38.58
2023-04-16T22:00:28.446Z,40.20
2023-04-16T22:02:56.109Z,40.60
2023-04-16T22:05:25.775Z,39.53
2023-04-16T22:07:52.522Z,39.15
2023-04-16T22:10:19.222Z,39.67
2023-04-16T22:12:46.495Z,40.10
2023-04-16T22:15:13.326Z,40.78
2023-04-16T22:17:40.410Z,38.97
2023-04-16T22:20:09.377Z,39.53
2023-04-16T22:22:36.101Z,38.78
2023-04-16T22:25:03.414Z,39.00
2023-04-16T22:27:30.046Z,38.97
2023-04-16T22:29:56.690Z,40.35
2023-04-16T22:32:23.426Z,39.55
2023-04-16T22:34:50.429Z,39.38
2023-04-16T22:37:17.030Z,38.42
2023-04-16T22:39:43.632Z,38.90
2023-04-16T22:42:10.375Z,39.67
2023-04-16T22:44:37.052Z,39.88
2023-04-16T22:47:03.677Z,39.08
2023-04-16T22:49:33.038Z,38.55
2023-04-16T22:52:02.810Z,40.33
2023-04-16T22:54:30.148Z,38.75
2023-04-16T22:56:56.960Z,39.63
2023-04-16T22:59:23.715Z,39.30
2023-04-16T23:01:51.049Z,36.95
2023-04-16T23:04:17.750Z,38.90
2023-04-16T23:06:44.391Z,36.38
2023-04-16T23:09:11.154Z,38.55
2023-04-16T23:11:37.907Z,38.55
2023-04-16T23:14:05.009Z,38.08
2023-04-16T23:16:31.602Z,37.05
2023-04-16T23:18:58.208Z,37.97
2023-04-16T23:21:24.881Z,37.35
2023-04-16T23:23:51.632Z,38.40
2023-04-16T23:26:18.226Z,38.40
2023-04-16T23:28:44.843Z,36.67
2023-04-16T23:31:11.506Z,37.67
2023-04-16T23:33:38.141Z,37.67
2023-04-16T23:36:05.066Z,39.83
2023-04-16T23:38:31.685Z,39.28
2023-04-16T23:40:58.298Z,38.55
2023-04-16T23:43:25.000Z,38.25
2023-04-16T23:45:51.715Z,36.75
2023-04-16T23:48:18.364Z,37.03
2023-04-16T23:50:45.069Z,38.67
2023-04-16T23:53:11.701Z,36.75
2023-04-16T23:55:38.317Z,39.03
2023-04-16T23:58:04.975Z,37.38
